Fassberg Airport ETHS

Flugplatz Daten

Name: Fassberg Airport

Ident: ETHS

Lat: 52,91939926

Long: 10,19750023

Platzhöhe: 245 ft

IataCode:

City:

Metar

2021/10/16 18:20
ETHS 161820Z AUTO 23005KT 9999 // ////// 09/04 Q1020 ///

Taf

2015/11/30 12:36
TAF ETHS 301124Z 3012/0101 25015G28KT 9999 NSW FEW030 BKN080
BECMG 3016/3018 23015KT 4000 RADZ SCT007 BKN012
TEMPO 3017/3021 21005KT 2500 DZRA SCT003 BKN006
Gewünschte Webcam nicht vorhanden? Dann fügen Sie eine hinzu. Sie wird dann so schnell wie möglich freigeschaltet
Url: Title: